sensor_id;sensor_type;location;lat;lon;timestamp;P1;durP1;ratioP1;P2;durP2;ratioP2
57635;SDS011;43465;50.728;4.160;2022-11-14T00:02:24;30.85;;;23.95;;
57635;SDS011;43465;50.728;4.160;2022-11-14T00:04:49;29.05;;;21.48;;
57635;SDS011;43465;50.728;4.160;2022-11-14T00:07:15;26.08;;;23.02;;
57635;SDS011;43465;50.728;4.160;2022-11-14T00:09:41;28.20;;;21.88;;
57635;SDS011;43465;50.728;4.160;2022-11-14T00:12:10;30.80;;;22.17;;
57635;SDS011;43465;50.728;4.160;2022-11-14T00:14:36;23.33;;;19.92;;
57635;SDS011;43465;50.728;4.160;2022-11-14T00:17:03;25.23;;;21.15;;
57635;SDS011;43465;50.728;4.160;2022-11-14T00:19:29;24.27;;;20.80;;
57635;SDS011;43465;50.728;4.160;2022-11-14T00:21:55;25.17;;;20.75;;
57635;SDS011;43465;50.728;4.160;2022-11-14T00:24:21;24.60;;;20.05;;
57635;SDS011;43465;50.728;4.160;2022-11-14T00:26:47;27.90;;;20.73;;
57635;SDS011;43465;50.728;4.160;2022-11-14T00:29:13;24.77;;;21.15;;
57635;SDS011;43465;50.728;4.160;2022-11-14T00:31:40;27.30;;;20.60;;
57635;SDS011;43465;50.728;4.160;2022-11-14T00:34:06;29.35;;;23.17;;
57635;SDS011;43465;50.728;4.160;2022-11-14T00:36:32;29.25;;;23.83;;
57635;SDS011;43465;50.728;4.160;2022-11-14T00:38:58;29.05;;;23.45;;
57635;SDS011;43465;50.728;4.160;2022-11-14T00:41:24;32.05;;;24.05;;
57635;SDS011;43465;50.728;4.160;2022-11-14T00:43:50;28.38;;;23.42;;
57635;SDS011;43465;50.728;4.160;2022-11-14T00:46:16;28.17;;;22.83;;
57635;SDS011;43465;50.728;4.160;2022-11-14T00:48:41;32.25;;;24.85;;
57635;SDS011;43465;50.728;4.160;2022-11-14T00:51:07;34.75;;;25.83;;
57635;SDS011;43465;50.728;4.160;2022-11-14T00:53:33;183.85;;;29.77;;
57635;SDS011;43465;50.728;4.160;2022-11-14T00:55:59;35.80;;;24.85;;
57635;SDS011;43465;50.728;4.160;2022-11-14T00:58:25;33.25;;;23.85;;
57635;SDS011;43465;50.728;4.160;2022-11-14T01:00:50;24.80;;;21.20;;
57635;SDS011;43465;50.728;4.160;2022-11-14T01:03:16;28.65;;;23.08;;
57635;SDS011;43465;50.728;4.160;2022-11-14T01:05:43;28.42;;;21.88;;
57635;SDS011;43465;50.728;4.160;2022-11-14T01:08:10;26.35;;;21.50;;
57635;SDS011;43465;50.728;4.160;2022-11-14T01:10:39;31.67;;;22.77;;
57635;SDS011;43465;50.728;4.160;2022-11-14T01:13:06;27.33;;;21.55;;
57635;SDS011;43465;50.728;4.160;2022-11-14T01:15:32;29.50;;;22.70;;
57635;SDS011;43465;50.728;4.160;2022-11-14T01:17:57;23.70;;;19.98;;
57635;SDS011;43465;50.728;4.160;2022-11-14T01:20:23;25.00;;;19.98;;
57635;SDS011;43465;50.728;4.160;2022-11-14T01:22:49;29.75;;;20.65;;
57635;SDS011;43465;50.728;4.160;2022-11-14T01:25:15;27.67;;;21.60;;
57635;SDS011;43465;50.728;4.160;2022-11-14T01:27:40;26.50;;;20.13;;
57635;SDS011;43465;50.728;4.160;2022-11-14T01:30:06;27.13;;;21.55;;
57635;SDS011;43465;50.728;4.160;2022-11-14T01:32:32;27.27;;;20.65;;
57635;SDS011;43465;50.728;4.160;2022-11-14T01:34:57;27.38;;;20.45;;
57635;SDS011;43465;50.728;4.160;2022-11-14T01:37:23;27.63;;;21.27;;
57635;SDS011;43465;50.728;4.160;2022-11-14T01:39:49;28.13;;;20.67;;
57635;SDS011;43465;50.728;4.160;2022-11-14T01:42:14;32.97;;;22.40;;
57635;SDS011;43465;50.728;4.160;2022-11-14T01:44:47;29.17;;;22.42;;
57635;SDS011;43465;50.728;4.160;2022-11-14T01:47:21;31.20;;;21.88;;
57635;SDS011;43465;50.728;4.160;2022-11-14T01:49:52;28.05;;;22.00;;
57635;SDS011;43465;50.728;4.160;2022-11-14T01:54:56;26.50;;;21.58;;
57635;SDS011;43465;50.728;4.160;2022-11-14T02:00:17;30.77;;;22.13;;
57635;SDS011;43465;50.728;4.160;2022-11-14T02:02:43;29.92;;;22.73;;
57635;SDS011;43465;50.728;4.160;2022-11-14T02:05:10;25.63;;;21.17;;
57635;SDS011;43465;50.728;4.160;2022-11-14T02:07:39;27.40;;;20.92;;
57635;SDS011;43465;50.728;4.160;2022-11-14T02:10:07;29.50;;;21.20;;
57635;SDS011;43465;50.728;4.160;2022-11-14T02:12:39;27.25;;;20.42;;
57635;SDS011;43465;50.728;4.160;2022-11-14T02:15:05;25.63;;;20.27;;
57635;SDS011;43465;50.728;4.160;2022-11-14T02:17:33;27.92;;;19.98;;
57635;SDS011;43465;50.728;4.160;2022-11-14T02:22:27;20.13;;;16.73;;
57635;SDS011;43465;50.728;4.160;2022-11-14T02:24:53;23.65;;;18.17;;
57635;SDS011;43465;50.728;4.160;2022-11-14T02:27:18;23.15;;;18.10;;
57635;SDS011;43465;50.728;4.160;2022-11-14T02:29:44;21.98;;;17.77;;
57635;SDS011;43465;50.728;4.160;2022-11-14T02:32:10;23.25;;;17.25;;
57635;SDS011;43465;50.728;4.160;2022-11-14T02:34:35;22.45;;;17.38;;
57635;SDS011;43465;50.728;4.160;2022-11-14T02:37:02;21.17;;;16.63;;
57635;SDS011;43465;50.728;4.160;2022-11-14T02:39:27;21.92;;;16.92;;
57635;SDS011;43465;50.728;4.160;2022-11-14T02:41:53;19.58;;;16.48;;
57635;SDS011;43465;50.728;4.160;2022-11-14T02:44:18;22.10;;;17.17;;
57635;SDS011;43465;50.728;4.160;2022-11-14T02:46:44;21.45;;;17.65;;
57635;SDS011;43465;50.728;4.160;2022-11-14T02:49:10;23.23;;;18.35;;
57635;SDS011;43465;50.728;4.160;2022-11-14T02:51:35;23.70;;;18.23;;
57635;SDS011;43465;50.728;4.160;2022-11-14T02:54:01;22.50;;;17.83;;
57635;SDS011;43465;50.728;4.160;2022-11-14T02:56:26;18.80;;;15.90;;
57635;SDS011;43465;50.728;4.160;2022-11-14T02:58:52;22.85;;;16.90;;
57635;SDS011;43465;50.728;4.160;2022-11-14T03:01:18;21.27;;;17.33;;
57635;SDS011;43465;50.728;4.160;2022-11-14T03:03:43;24.58;;;16.77;;
57635;SDS011;43465;50.728;4.160;2022-11-14T03:06:09;21.30;;;16.98;;
57635;SDS011;43465;50.728;4.160;2022-11-14T03:08:34;20.20;;;15.63;;
57635;SDS011;43465;50.728;4.160;2022-11-14T03:11:04;17.98;;;15.07;;
57635;SDS011;43465;50.728;4.160;2022-11-14T03:13:31;19.25;;;13.50;;
57635;SDS011;43465;50.728;4.160;2022-11-14T03:15:56;19.55;;;14.48;;
57635;SDS011;43465;50.728;4.160;2022-11-14T03:18:28;18.58;;;13.77;;
57635;SDS011;43465;50.728;4.160;2022-11-14T03:20:54;16.92;;;14.10;;
57635;SDS011;43465;50.728;4.160;2022-11-14T03:23:19;15.55;;;12.75;;
57635;SDS011;43465;50.728;4.160;2022-11-14T03:25:45;17.80;;;14.50;;
57635;SDS011;43465;50.728;4.160;2022-11-14T03:28:10;17.67;;;13.90;;
57635;SDS011;43465;50.728;4.160;2022-11-14T03:30:36;19.60;;;15.18;;
57635;SDS011;43465;50.728;4.160;2022-11-14T03:33:01;17.70;;;14.48;;
57635;SDS011;43465;50.728;4.160;2022-11-14T03:35:27;21.35;;;15.75;;
57635;SDS011;43465;50.728;4.160;2022-11-14T03:37:53;24.27;;;18.73;;
57635;SDS011;43465;50.728;4.160;2022-11-14T03:40:18;21.95;;;18.02;;
57635;SDS011;43465;50.728;4.160;2022-11-14T03:42:44;19.27;;;16.77;;
57635;SDS011;43465;50.728;4.160;2022-11-14T03:45:09;24.98;;;19.15;;
57635;SDS011;43465;50.728;4.160;2022-11-14T03:47:36;22.13;;;18.52;;
57635;SDS011;43465;50.728;4.160;2022-11-14T03:50:02;24.77;;;19.88;;
57635;SDS011;43465;50.728;4.160;2022-11-14T03:52:27;21.08;;;17.98;;
57635;SDS011;43465;50.728;4.160;2022-11-14T03:54:53;23.48;;;18.02;;
57635;SDS011;43465;50.728;4.160;2022-11-14T03:57:19;22.77;;;17.63;;
57635;SDS011;43465;50.728;4.160;2022-11-14T03:59:44;19.52;;;16.00;;
57635;SDS011;43465;50.728;4.160;2022-11-14T04:02:10;19.02;;;15.57;;
57635;SDS011;43465;50.728;4.160;2022-11-14T04:04:35;19.58;;;15.05;;
57635;SDS011;43465;50.728;4.160;2022-11-14T04:07:01;18.73;;;14.65;;
57635;SDS011;43465;50.728;4.160;2022-11-14T04:09:27;19.52;;;14.30;;
57635;SDS011;43465;50.728;4.160;2022-11-14T04:11:53;20.60;;;15.60;;
57635;SDS011;43465;50.728;4.160;2022-11-14T04:14:19;18.05;;;15.05;;
57635;SDS011;43465;50.728;4.160;2022-11-14T04:16:44;19.08;;;14.88;;
57635;SDS011;43465;50.728;4.160;2022-11-14T04:19:10;18.20;;;15.00;;
57635;SDS011;43465;50.728;4.160;2022-11-14T04:21:35;20.85;;;16.35;;
57635;SDS011;43465;50.728;4.160;2022-11-14T04:24:01;18.88;;;15.93;;
57635;SDS011;43465;50.728;4.160;2022-11-14T04:26:27;21.88;;;16.13;;
57635;SDS011;43465;50.728;4.160;2022-11-14T04:28:52;20.40;;;16.83;;
57635;SDS011;43465;50.728;4.160;2022-11-14T04:31:18;20.40;;;16.83;;
57635;SDS011;43465;50.728;4.160;2022-11-14T04:33:43;20.17;;;15.65;;
57635;SDS011;43465;50.728;4.160;2022-11-14T04:36:09;20.35;;;16.08;;
57635;SDS011;43465;50.728;4.160;2022-11-14T04:38:35;19.35;;;15.27;;
57635;SDS011;43465;50.728;4.160;2022-11-14T04:41:00;17.95;;;14.85;;
57635;SDS011;43465;50.728;4.160;2022-11-14T04:43:26;19.90;;;14.75;;
57635;SDS011;43465;50.728;4.160;2022-11-14T04:45:51;17.13;;;14.55;;
57635;SDS011;43465;50.728;4.160;2022-11-14T04:48:17;22.25;;;13.90;;
57635;SDS011;43465;50.728;4.160;2022-11-14T04:50:44;18.20;;;13.63;;
57635;SDS011;43465;50.728;4.160;2022-11-14T04:53:10;18.92;;;14.05;;
57635;SDS011;43465;50.728;4.160;2022-11-14T04:55:35;18.70;;;13.52;;
57635;SDS011;43465;50.728;4.160;2022-11-14T04:58:01;16.00;;;13.02;;
57635;SDS011;43465;50.728;4.160;2022-11-14T05:00:27;16.70;;;12.90;;
57635;SDS011;43465;50.728;4.160;2022-11-14T05:02:52;15.15;;;12.55;;
57635;SDS011;43465;50.728;4.160;2022-11-14T05:05:18;16.00;;;13.10;;
57635;SDS011;43465;50.728;4.160;2022-11-14T05:07:44;18.83;;;14.10;;
57635;SDS011;43465;50.728;4.160;2022-11-14T05:10:09;13.82;;;12.15;;
57635;SDS011;43465;50.728;4.160;2022-11-14T05:12:35;18.27;;;13.20;;
57635;SDS011;43465;50.728;4.160;2022-11-14T05:15:00;15.93;;;12.85;;
57635;SDS011;43465;50.728;4.160;2022-11-14T05:17:26;16.45;;;13.48;;
57635;SDS011;43465;50.728;4.160;2022-11-14T05:19:52;19.35;;;12.32;;
57635;SDS011;43465;50.728;4.160;2022-11-14T05:22:18;17.80;;;13.20;;
57635;SDS011;43465;50.728;4.160;2022-11-14T05:24:43;15.05;;;12.73;;
57635;SDS011;43465;50.728;4.160;2022-11-14T05:27:09;16.38;;;13.05;;
57635;SDS011;43465;50.728;4.160;2022-11-14T05:29:35;18.23;;;14.45;;
57635;SDS011;43465;50.728;4.160;2022-11-14T05:32:00;16.83;;;13.15;;
57635;SDS011;43465;50.728;4.160;2022-11-14T05:34:26;15.88;;;12.75;;
57635;SDS011;43465;50.728;4.160;2022-11-14T05:36:52;17.38;;;13.05;;
57635;SDS011;43465;50.728;4.160;2022-11-14T05:39:17;15.45;;;13.00;;
57635;SDS011;43465;50.728;4.160;2022-11-14T05:41:43;14.82;;;11.13;;
57635;SDS011;43465;50.728;4.160;2022-11-14T05:44:09;13.80;;;11.23;;
57635;SDS011;43465;50.728;4.160;2022-11-14T05:46:34;14.38;;;11.55;;
57635;SDS011;43465;50.728;4.160;2022-11-14T05:49:00;15.88;;;12.52;;
57635;SDS011;43465;50.728;4.160;2022-11-14T05:51:25;15.02;;;11.60;;
57635;SDS011;43465;50.728;4.160;2022-11-14T05:53:51;13.27;;;11.13;;
57635;SDS011;43465;50.728;4.160;2022-11-14T05:56:17;12.50;;;10.52;;
57635;SDS011;43465;50.728;4.160;2022-11-14T05:58:42;15.02;;;11.02;;
57635;SDS011;43465;50.728;4.160;2022-11-14T06:01:09;14.10;;;10.77;;
57635;SDS011;43465;50.728;4.160;2022-11-14T06:03:38;11.75;;;10.02;;
57635;SDS011;43465;50.728;4.160;2022-11-14T06:06:06;12.23;;;10.93;;
57635;SDS011;43465;50.728;4.160;2022-11-14T06:08:33;14.48;;;10.32;;
57635;SDS011;43465;50.728;4.160;2022-11-14T06:11:06;13.10;;;10.15;;
57635;SDS011;43465;50.728;4.160;2022-11-14T06:13:34;16.00;;;9.98;;
57635;SDS011;43465;50.728;4.160;2022-11-14T06:16:00;13.25;;;10.52;;
57635;SDS011;43465;50.728;4.160;2022-11-14T06:18:30;12.73;;;9.68;;
57635;SDS011;43465;50.728;4.160;2022-11-14T06:21:03;12.85;;;10.27;;
57635;SDS011;43465;50.728;4.160;2022-11-14T06:23:48;12.48;;;9.70;;
57635;SDS011;43465;50.728;4.160;2022-11-14T06:26:21;11.77;;;9.68;;
57635;SDS011;43465;50.728;4.160;2022-11-14T06:28:48;14.52;;;8.80;;
57635;SDS011;43465;50.728;4.160;2022-11-14T06:31:14;13.68;;;9.82;;
57635;SDS011;43465;50.728;4.160;2022-11-14T06:33:40;13.52;;;9.75;;
57635;SDS011;43465;50.728;4.160;2022-11-14T06:36:06;13.35;;;9.80;;
57635;SDS011;43465;50.728;4.160;2022-11-14T06:38:34;16.55;;;10.50;;
57635;SDS011;43465;50.728;4.160;2022-11-14T06:41:02;12.98;;;10.25;;
57635;SDS011;43465;50.728;4.160;2022-11-14T06:43:35;12.10;;;9.75;;
57635;SDS011;43465;50.728;4.160;2022-11-14T06:46:03;13.82;;;10.02;;
57635;SDS011;43465;50.728;4.160;2022-11-14T06:48:30;12.43;;;9.95;;
57635;SDS011;43465;50.728;4.160;2022-11-14T06:50:56;12.38;;;9.77;;
57635;SDS011;43465;50.728;4.160;2022-11-14T06:53:23;12.63;;;9.85;;
57635;SDS011;43465;50.728;4.160;2022-11-14T06:55:53;13.07;;;10.82;;
57635;SDS011;43465;50.728;4.160;2022-11-14T06:58:27;11.77;;;9.85;;
57635;SDS011;43465;50.728;4.160;2022-11-14T07:00:53;13.52;;;10.20;;
57635;SDS011;43465;50.728;4.160;2022-11-14T07:03:19;16.90;;;11.57;;
57635;SDS011;43465;50.728;4.160;2022-11-14T07:05:45;12.95;;;10.45;;
57635;SDS011;43465;50.728;4.160;2022-11-14T07:08:11;19.20;;;11.05;;
57635;SDS011;43465;50.728;4.160;2022-11-14T07:10:36;17.17;;;10.23;;
57635;SDS011;43465;50.728;4.160;2022-11-14T07:13:02;16.77;;;11.30;;
57635;SDS011;43465;50.728;4.160;2022-11-14T07:15:27;16.95;;;11.55;;
57635;SDS011;43465;50.728;4.160;2022-11-14T07:17:53;15.20;;;12.38;;
57635;SDS011;43465;50.728;4.160;2022-11-14T07:20:19;17.48;;;12.07;;
57635;SDS011;43465;50.728;4.160;2022-11-14T07:22:45;14.52;;;12.15;;
57635;SDS011;43465;50.728;4.160;2022-11-14T07:25:11;17.00;;;12.48;;
57635;SDS011;43465;50.728;4.160;2022-11-14T07:27:37;19.88;;;11.77;;
57635;SDS011;43465;50.728;4.160;2022-11-14T07:30:04;15.43;;;11.27;;
57635;SDS011;43465;50.728;4.160;2022-11-14T07:32:30;15.50;;;12.35;;
57635;SDS011;43465;50.728;4.160;2022-11-14T07:34:56;20.00;;;12.55;;
57635;SDS011;43465;50.728;4.160;2022-11-14T07:37:21;17.30;;;11.75;;
57635;SDS011;43465;50.728;4.160;2022-11-14T07:39:47;23.23;;;14.10;;
57635;SDS011;43465;50.728;4.160;2022-11-14T07:42:12;18.17;;;12.80;;
57635;SDS011;43465;50.728;4.160;2022-11-14T07:44:38;36.67;;;23.35;;
57635;SDS011;43465;50.728;4.160;2022-11-14T07:47:04;38.72;;;25.45;;
57635;SDS011;43465;50.728;4.160;2022-11-14T07:49:29;38.92;;;22.33;;
57635;SDS011;43465;50.728;4.160;2022-11-14T07:51:55;30.70;;;20.02;;
57635;SDS011;43465;50.728;4.160;2022-11-14T07:54:20;23.55;;;16.85;;
57635;SDS011;43465;50.728;4.160;2022-11-14T07:56:46;28.58;;;18.83;;
57635;SDS011;43465;50.728;4.160;2022-11-14T07:59:12;24.77;;;17.25;;
57635;SDS011;43465;50.728;4.160;2022-11-14T08:01:37;28.17;;;17.80;;
57635;SDS011;43465;50.728;4.160;2022-11-14T08:04:03;24.30;;;18.45;;
57635;SDS011;43465;50.728;4.160;2022-11-14T08:06:28;28.65;;;18.20;;
57635;SDS011;43465;50.728;4.160;2022-11-14T08:08:54;25.02;;;16.63;;
57635;SDS011;43465;50.728;4.160;2022-11-14T08:11:20;23.73;;;16.05;;
57635;SDS011;43465;50.728;4.160;2022-11-14T08:14:05;18.77;;;15.00;;
57635;SDS011;43465;50.728;4.160;2022-11-14T08:16:31;23.25;;;16.65;;
57635;SDS011;43465;50.728;4.160;2022-11-14T08:18:57;29.27;;;18.45;;
57635;SDS011;43465;50.728;4.160;2022-11-14T08:21:23;33.83;;;22.40;;
57635;SDS011;43465;50.728;4.160;2022-11-14T08:23:48;30.65;;;19.77;;
57635;SDS011;43465;50.728;4.160;2022-11-14T08:26:14;23.33;;;16.42;;
57635;SDS011;43465;50.728;4.160;2022-11-14T08:28:39;24.95;;;17.95;;
57635;SDS011;43465;50.728;4.160;2022-11-14T08:31:05;22.90;;;17.27;;
57635;SDS011;43465;50.728;4.160;2022-11-14T08:33:31;21.38;;;15.70;;
57635;SDS011;43465;50.728;4.160;2022-11-14T08:36:00;24.00;;;16.35;;
57635;SDS011;43465;50.728;4.160;2022-11-14T08:38:26;21.08;;;15.57;;
57635;SDS011;43465;50.728;4.160;2022-11-14T08:40:52;25.33;;;16.45;;
57635;SDS011;43465;50.728;4.160;2022-11-14T08:43:22;21.25;;;16.02;;
57635;SDS011;43465;50.728;4.160;2022-11-14T08:45:48;23.48;;;16.08;;
57635;SDS011;43465;50.728;4.160;2022-11-14T08:48:13;23.08;;;15.93;;
57635;SDS011;43465;50.728;4.160;2022-11-14T08:50:39;25.58;;;16.38;;
57635;SDS011;43465;50.728;4.160;2022-11-14T08:53:05;28.80;;;17.10;;
57635;SDS011;43465;50.728;4.160;2022-11-14T08:55:30;25.20;;;16.30;;
57635;SDS011;43465;50.728;4.160;2022-11-14T08:57:56;27.17;;;17.02;;
57635;SDS011;43465;50.728;4.160;2022-11-14T09:00:22;30.35;;;17.90;;
57635;SDS011;43465;50.728;4.160;2022-11-14T09:02:47;23.77;;;17.27;;
57635;SDS011;43465;50.728;4.160;2022-11-14T09:05:13;21.95;;;15.48;;
57635;SDS011;43465;50.728;4.160;2022-11-14T09:07:39;25.38;;;16.88;;
57635;SDS011;43465;50.728;4.160;2022-11-14T09:10:04;24.55;;;16.90;;
57635;SDS011;43465;50.728;4.160;2022-11-14T09:12:31;23.55;;;16.83;;
57635;SDS011;43465;50.728;4.160;2022-11-14T09:14:57;25.02;;;17.83;;
57635;SDS011;43465;50.728;4.160;2022-11-14T09:17:22;25.65;;;18.83;;
57635;SDS011;43465;50.728;4.160;2022-11-14T09:19:48;27.98;;;18.73;;
57635;SDS011;43465;50.728;4.160;2022-11-14T09:22:14;30.52;;;19.92;;
57635;SDS011;43465;50.728;4.160;2022-11-14T09:24:40;32.03;;;20.83;;
57635;SDS011;43465;50.728;4.160;2022-11-14T09:27:05;36.03;;;22.33;;
57635;SDS011;43465;50.728;4.160;2022-11-14T09:29:31;32.53;;;22.30;;
57635;SDS011;43465;50.728;4.160;2022-11-14T09:31:57;34.60;;;23.60;;
57635;SDS011;43465;50.728;4.160;2022-11-14T09:34:23;39.15;;;23.77;;
57635;SDS011;43465;50.728;4.160;2022-11-14T09:36:49;30.23;;;20.98;;
57635;SDS011;43465;50.728;4.160;2022-11-14T09:39:15;30.80;;;21.33;;
57635;SDS011;43465;50.728;4.160;2022-11-14T09:47:16;31.50;;;21.55;;
57635;SDS011;43465;50.728;4.160;2022-11-14T09:49:47;29.35;;;19.73;;
57635;SDS011;43465;50.728;4.160;2022-11-14T09:55:18;27.67;;;19.25;;
57635;SDS011;43465;50.728;4.160;2022-11-14T09:57:46;28.63;;;20.50;;
57635;SDS011;43465;50.728;4.160;2022-11-14T10:11:09;36.10;;;23.65;;
57635;SDS011;43465;50.728;4.160;2022-11-14T10:16:49;34.28;;;23.45;;
57635;SDS011;43465;50.728;4.160;2022-11-14T10:22:33;38.13;;;23.23;;
57635;SDS011;43465;50.728;4.160;2022-11-14T10:25:20;33.42;;;23.23;;
57635;SDS011;43465;50.728;4.160;2022-11-14T10:33:38;35.45;;;24.35;;
57635;SDS011;43465;50.728;4.160;2022-11-14T10:36:20;35.63;;;23.17;;
57635;SDS011;43465;50.728;4.160;2022-11-14T10:39:10;34.70;;;24.60;;
57635;SDS011;43465;50.728;4.160;2022-11-14T10:41:37;35.67;;;23.35;;
57635;SDS011;43465;50.728;4.160;2022-11-14T10:44:07;37.10;;;22.77;;
57635;SDS011;43465;50.728;4.160;2022-11-14T10:46:43;42.42;;;24.10;;
57635;SDS011;43465;50.728;4.160;2022-11-14T10:49:15;36.17;;;22.67;;
57635;SDS011;43465;50.728;4.160;2022-11-14T10:51:54;35.67;;;23.92;;
57635;SDS011;43465;50.728;4.160;2022-11-14T10:56:57;32.55;;;21.25;;
57635;SDS011;43465;50.728;4.160;2022-11-14T10:59:23;33.25;;;22.60;;
57635;SDS011;43465;50.728;4.160;2022-11-14T11:04:25;39.08;;;22.38;;
57635;SDS011;43465;50.728;4.160;2022-11-14T11:06:56;49.70;;;22.50;;
57635;SDS011;43465;50.728;4.160;2022-11-14T11:09:30;36.08;;;22.70;;
57635;SDS011;43465;50.728;4.160;2022-11-14T11:12:19;35.88;;;22.73;;
57635;SDS011;43465;50.728;4.160;2022-11-14T11:14:47;36.53;;;22.05;;
57635;SDS011;43465;50.728;4.160;2022-11-14T11:17:31;36.60;;;22.65;;
57635;SDS011;43465;50.728;4.160;2022-11-14T11:19:57;39.03;;;22.45;;
57635;SDS011;43465;50.728;4.160;2022-11-14T11:22:48;33.42;;;21.88;;
57635;SDS011;43465;50.728;4.160;2022-11-14T11:26:16;34.95;;;22.42;;
57635;SDS011;43465;50.728;4.160;2022-11-14T11:28:42;28.17;;;20.92;;
57635;SDS011;43465;50.728;4.160;2022-11-14T11:31:08;31.02;;;21.38;;
57635;SDS011;43465;50.728;4.160;2022-11-14T11:33:36;34.92;;;22.13;;
57635;SDS011;43465;50.728;4.160;2022-11-14T11:36:13;32.03;;;21.60;;
57635;SDS011;43465;50.728;4.160;2022-11-14T11:38:43;33.30;;;23.00;;
57635;SDS011;43465;50.728;4.160;2022-11-14T11:43:53;31.85;;;21.38;;
57635;SDS011;43465;50.728;4.160;2022-11-14T11:52:03;32.53;;;21.10;;
57635;SDS011;43465;50.728;4.160;2022-11-14T11:54:59;31.67;;;20.63;;
57635;SDS011;43465;50.728;4.160;2022-11-14T12:00:27;33.03;;;21.65;;
57635;SDS011;43465;50.728;4.160;2022-11-14T12:02:53;27.75;;;20.33;;
57635;SDS011;43465;50.728;4.160;2022-11-14T12:11:09;30.20;;;22.30;;
57635;SDS011;43465;50.728;4.160;2022-11-14T12:13:48;34.20;;;23.05;;
57635;SDS011;43465;50.728;4.160;2022-11-14T12:33:03;32.58;;;23.60;;
57635;SDS011;43465;50.728;4.160;2022-11-14T12:35:45;31.60;;;22.63;;
57635;SDS011;43465;50.728;4.160;2022-11-14T12:38:15;30.70;;;22.55;;
57635;SDS011;43465;50.728;4.160;2022-11-14T12:41:03;33.47;;;23.02;;
57635;SDS011;43465;50.728;4.160;2022-11-14T12:46:03;31.90;;;22.38;;
57635;SDS011;43465;50.728;4.160;2022-11-14T12:48:33;31.57;;;21.97;;
57635;SDS011;43465;50.728;4.160;2022-11-14T12:51:01;31.52;;;23.27;;
57635;SDS011;43465;50.728;4.160;2022-11-14T12:56:20;30.90;;;22.20;;
57635;SDS011;43465;50.728;4.160;2022-11-14T13:01:43;33.47;;;22.30;;
57635;SDS011;43465;50.728;4.160;2022-11-14T13:04:16;30.60;;;21.63;;
57635;SDS011;43465;50.728;4.160;2022-11-14T13:12:40;29.38;;;21.90;;
57635;SDS011;43465;50.728;4.160;2022-11-14T13:18:13;28.30;;;20.48;;
57635;SDS011;43465;50.728;4.160;2022-11-14T13:24:04;27.73;;;20.35;;
57635;SDS011;43465;50.728;4.160;2022-11-14T13:28:55;28.67;;;20.90;;
57635;SDS011;43465;50.728;4.160;2022-11-14T13:32:06;28.63;;;21.48;;
57635;SDS011;43465;50.728;4.160;2022-11-14T13:37:17;27.15;;;19.88;;
57635;SDS011;43465;50.728;4.160;2022-11-14T13:43:08;27.00;;;19.80;;
57635;SDS011;43465;50.728;4.160;2022-11-14T13:46:17;23.50;;;18.70;;
57635;SDS011;43465;50.728;4.160;2022-11-14T13:50:08;26.38;;;19.50;;
57635;SDS011;43465;50.728;4.160;2022-11-14T13:52:20;26.00;;;19.67;;
57635;SDS011;43465;50.728;4.160;2022-11-14T13:54:47;27.27;;;19.95;;
57635;SDS011;43465;50.728;4.160;2022-11-14T14:08:07;28.77;;;19.23;;
57635;SDS011;43465;50.728;4.160;2022-11-14T14:10:40;26.08;;;18.65;;
57635;SDS011;43465;50.728;4.160;2022-11-14T14:13:20;26.80;;;19.50;;
57635;SDS011;43465;50.728;4.160;2022-11-14T14:16:06;29.52;;;20.08;;
57635;SDS011;43465;50.728;4.160;2022-11-14T14:24:38;25.95;;;19.08;;
57635;SDS011;43465;50.728;4.160;2022-11-14T14:32:17;27.83;;;19.63;;
57635;SDS011;43465;50.728;4.160;2022-11-14T14:34:43;25.85;;;19.33;;
57635;SDS011;43465;50.728;4.160;2022-11-14T14:37:19;27.13;;;18.60;;
57635;SDS011;43465;50.728;4.160;2022-11-14T14:39:59;25.90;;;19.70;;
57635;SDS011;43465;50.728;4.160;2022-11-14T14:42:48;25.65;;;18.63;;
57635;SDS011;43465;50.728;4.160;2022-11-14T14:45:22;24.40;;;17.77;;
57635;SDS011;43465;50.728;4.160;2022-11-14T14:48:02;23.50;;;18.67;;
57635;SDS011;43465;50.728;4.160;2022-11-14T14:53:04;22.23;;;17.92;;
57635;SDS011;43465;50.728;4.160;2022-11-14T14:55:32;22.30;;;17.33;;
57635;SDS011;43465;50.728;4.160;2022-11-14T15:01:05;25.27;;;17.52;;
57635;SDS011;43465;50.728;4.160;2022-11-14T15:03:36;25.20;;;18.45;;
57635;SDS011;43465;50.728;4.160;2022-11-14T15:06:05;26.23;;;17.85;;
57635;SDS011;43465;50.728;4.160;2022-11-14T15:08:42;24.63;;;17.63;;
57635;SDS011;43465;50.728;4.160;2022-11-14T15:11:10;26.08;;;18.13;;
57635;SDS011;43465;50.728;4.160;2022-11-14T15:13:37;22.58;;;17.27;;
57635;SDS011;43465;50.728;4.160;2022-11-14T15:16:05;22.20;;;16.40;;
57635;SDS011;43465;50.728;4.160;2022-11-14T15:18:32;21.55;;;16.75;;
57635;SDS011;43465;50.728;4.160;2022-11-14T15:21:07;24.30;;;17.50;;
57635;SDS011;43465;50.728;4.160;2022-11-14T15:23:56;21.48;;;17.38;;
57635;SDS011;43465;50.728;4.160;2022-11-14T15:26:42;21.35;;;16.02;;
57635;SDS011;43465;50.728;4.160;2022-11-14T15:29:15;24.02;;;16.98;;
57635;SDS011;43465;50.728;4.160;2022-11-14T15:31:54;25.05;;;16.90;;
57635;SDS011;43465;50.728;4.160;2022-11-14T15:39:39;21.83;;;16.10;;
57635;SDS011;43465;50.728;4.160;2022-11-14T15:44:42;22.55;;;16.38;;
57635;SDS011;43465;50.728;4.160;2022-11-14T15:47:16;21.50;;;15.93;;
57635;SDS011;43465;50.728;4.160;2022-11-14T15:52:39;22.02;;;15.60;;
57635;SDS011;43465;50.728;4.160;2022-11-14T15:55:21;23.25;;;16.15;;
57635;SDS011;43465;50.728;4.160;2022-11-14T15:57:48;21.40;;;16.27;;
57635;SDS011;43465;50.728;4.160;2022-11-14T16:00:14;20.90;;;15.20;;
57635;SDS011;43465;50.728;4.160;2022-11-14T16:05:25;22.77;;;16.00;;
57635;SDS011;43465;50.728;4.160;2022-11-14T16:07:53;24.10;;;16.20;;
57635;SDS011;43465;50.728;4.160;2022-11-14T16:10:23;23.33;;;16.13;;
57635;SDS011;43465;50.728;4.160;2022-11-14T16:12:50;25.63;;;15.93;;
57635;SDS011;43465;50.728;4.160;2022-11-14T16:15:16;22.20;;;16.25;;
57635;SDS011;43465;50.728;4.160;2022-11-14T16:17:43;27.58;;;18.65;;
57635;SDS011;43465;50.728;4.160;2022-11-14T16:20:14;25.15;;;17.10;;
57635;SDS011;43465;50.728;4.160;2022-11-14T16:22:44;27.43;;;17.47;;
57635;SDS011;43465;50.728;4.160;2022-11-14T16:27:44;27.65;;;17.85;;
57635;SDS011;43465;50.728;4.160;2022-11-14T16:30:11;33.42;;;20.40;;
57635;SDS011;43465;50.728;4.160;2022-11-14T16:32:37;33.22;;;19.30;;
57635;SDS011;43465;50.728;4.160;2022-11-14T16:37:38;27.73;;;18.27;;
57635;SDS011;43465;50.728;4.160;2022-11-14T16:40:05;35.42;;;20.77;;
57635;SDS011;43465;50.728;4.160;2022-11-14T16:42:34;36.25;;;20.25;;
57635;SDS011;43465;50.728;4.160;2022-11-14T16:45:00;27.90;;;18.17;;
57635;SDS011;43465;50.728;4.160;2022-11-14T16:47:27;29.40;;;19.00;;
57635;SDS011;43465;50.728;4.160;2022-11-14T16:49:53;30.60;;;19.52;;
57635;SDS011;43465;50.728;4.160;2022-11-14T16:52:19;32.03;;;18.40;;
57635;SDS011;43465;50.728;4.160;2022-11-14T16:54:44;31.17;;;19.67;;
57635;SDS011;43465;50.728;4.160;2022-11-14T16:57:10;35.15;;;20.10;;
57635;SDS011;43465;50.728;4.160;2022-11-14T16:59:36;31.35;;;19.73;;
57635;SDS011;43465;50.728;4.160;2022-11-14T17:02:02;34.30;;;20.65;;
57635;SDS011;43465;50.728;4.160;2022-11-14T17:04:28;33.13;;;21.23;;